sensor_id;sensor_type;location;lat;lon;timestamp;pressure;altitude;pressure_sealevel;temperature;humidity
58875;BME280;44652;49.040;12.126;2024-02-28T16:23:02;97932.47;;;6.13;90.17
58875;BME280;44652;49.040;12.126;2024-02-28T16:25:31;97938.00;;;6.19;89.26
58875;BME280;44652;49.040;12.126;2024-02-28T16:27:58;97939.34;;;6.11;91.08
58875;BME280;44652;49.040;12.126;2024-02-28T16:30:24;97946.69;;;6.00;90.41
58875;BME280;44652;49.040;12.126;2024-02-28T16:32:51;97936.00;;;5.95;91.21
58875;BME280;44652;49.040;12.126;2024-02-28T16:35:18;97930.81;;;5.97;91.62
58875;BME280;44652;49.040;12.126;2024-02-28T16:37:45;97944.72;;;6.14;91.32
58875;BME280;44652;49.040;12.126;2024-02-28T16:40:11;97937.25;;;6.03;91.39
58875;BME280;44652;49.040;12.126;2024-02-28T16:42:38;97930.16;;;6.01;91.36
58875;BME280;44652;49.040;12.126;2024-02-28T16:45:05;97953.19;;;6.08;91.12
58875;BME280;44652;49.040;12.126;2024-02-28T16:47:32;97938.50;;;5.94;92.08
58875;BME280;44652;49.040;12.126;2024-02-28T16:49:59;97944.88;;;5.99;91.45
58875;BME280;44652;49.040;12.126;2024-02-28T16:52:26;97951.06;;;6.01;91.82
58875;BME280;44652;49.040;12.126;2024-02-28T16:54:53;97960.81;;;6.03;90.67
58875;BME280;44652;49.040;12.126;2024-02-28T16:57:20;97938.00;;;6.01;91.21
58875;BME280;44652;49.040;12.126;2024-02-28T16:59:46;97958.72;;;6.14;91.44
58875;BME280;44652;49.040;12.126;2024-02-28T17:02:13;97938.59;;;5.95;91.79
58875;BME280;44652;49.040;12.126;2024-02-28T17:04:40;97961.16;;;5.93;91.68
58875;BME280;44652;49.040;12.126;2024-02-28T17:07:06;97972.53;;;6.12;91.52
58875;BME280;44652;49.040;12.126;2024-02-28T17:09:33;97944.88;;;5.99;91.25
58875;BME280;44652;49.040;12.126;2024-02-28T17:12:00;97973.78;;;6.02;91.88
58875;BME280;44652;49.040;12.126;2024-02-28T17:14:27;97981.28;;;6.12;91.98
58875;BME280;44652;49.040;12.126;2024-02-28T17:16:53;97950.13;;;5.99;92.23
58875;BME280;44652;49.040;12.126;2024-02-28T17:19:20;97962.53;;;6.03;91.88
58875;BME280;44652;49.040;12.126;2024-02-28T17:21:47;97968.56;;;6.02;91.12
58875;BME280;44652;49.040;12.126;2024-02-28T17:24:13;97968.50;;;6.00;91.36
58875;BME280;44652;49.040;12.126;2024-02-28T17:26:40;97978.22;;;6.03;91.59
58875;BME280;44652;49.040;12.126;2024-02-28T17:29:07;97976.03;;;5.94;90.53
58875;BME280;44652;49.040;12.126;2024-02-28T17:31:34;97973.50;;;5.96;91.79
58875;BME280;44652;49.040;12.126;2024-02-28T17:34:01;97992.75;;;6.14;91.39
58875;BME280;44652;49.040;12.126;2024-02-28T17:36:28;97991.16;;;6.18;91.92
58875;BME280;44652;49.040;12.126;2024-02-28T17:38:54;97983.22;;;6.16;92.57
58875;BME280;44652;49.040;12.126;2024-02-28T17:41:21;97992.66;;;6.13;91.15
58875;BME280;44652;49.040;12.126;2024-02-28T17:43:48;97994.59;;;6.17;91.85
58875;BME280;44652;49.040;12.126;2024-02-28T17:46:15;97982.03;;;6.09;92.28
58875;BME280;44652;49.040;12.126;2024-02-28T17:48:41;98001.63;;;6.18;91.14
58875;BME280;44652;49.040;12.126;2024-02-28T17:51:10;97978.31;;;5.88;91.35
58875;BME280;44652;49.040;12.126;2024-02-28T17:53:36;97989.69;;;5.89;92.58
58875;BME280;44652;49.040;12.126;2024-02-28T17:56:03;97980.16;;;5.91;92.50
58875;BME280;44652;49.040;12.126;2024-02-28T17:58:32;97994.50;;;5.97;91.81
58875;BME280;44652;49.040;12.126;2024-02-28T18:00:59;98014.34;;;6.10;91.54
58875;BME280;44652;49.040;12.126;2024-02-28T18:03:28;97999.81;;;5.99;90.17
58875;BME280;44652;49.040;12.126;2024-02-28T18:05:55;98019.34;;;5.89;91.39
58875;BME280;44652;49.040;12.126;2024-02-28T18:08:23;97992.34;;;5.72;91.38
58875;BME280;44652;49.040;12.126;2024-02-28T18:10:51;98018.63;;;5.92;91.22
58875;BME280;44652;49.040;12.126;2024-02-28T18:13:18;98010.03;;;5.94;90.97
58875;BME280;44652;49.040;12.126;2024-02-28T18:15:48;97987.06;;;5.89;90.99
58875;BME280;44652;49.040;12.126;2024-02-28T18:18:15;97986.84;;;5.84;90.58
58875;BME280;44652;49.040;12.126;2024-02-28T18:20:42;98007.16;;;5.90;90.26
58875;BME280;44652;49.040;12.126;2024-02-28T18:23:09;97996.53;;;5.86;90.97
58875;BME280;44652;49.040;12.126;2024-02-28T18:25:45;98007.09;;;5.88;90.67
58875;BME280;44652;49.040;12.126;2024-02-28T18:28:12;97997.81;;;5.77;90.42
58875;BME280;44652;49.040;12.126;2024-02-28T18:30:39;97995.25;;;5.78;91.80
58875;BME280;44652;49.040;12.126;2024-02-28T18:33:07;98000.59;;;5.80;91.99
58875;BME280;44652;49.040;12.126;2024-02-28T18:35:33;98007.25;;;5.91;91.47
58875;BME280;44652;49.040;12.126;2024-02-28T18:38:01;97997.78;;;5.93;92.42
58875;BME280;44652;49.040;12.126;2024-02-28T18:40:27;98002.59;;;5.85;91.99
58875;BME280;44652;49.040;12.126;2024-02-28T18:42:55;98009.97;;;5.93;92.95
58875;BME280;44652;49.040;12.126;2024-02-28T18:45:22;98004.13;;;5.98;92.78
58875;BME280;44652;49.040;12.126;2024-02-28T18:47:50;97989.84;;;5.92;92.99
58875;BME280;44652;49.040;12.126;2024-02-28T18:50:17;98003.50;;;6.02;93.13
58875;BME280;44652;49.040;12.126;2024-02-28T18:52:44;97998.25;;;6.02;93.04
58875;BME280;44652;49.040;12.126;2024-02-28T18:55:10;97999.00;;;6.00;92.61
58875;BME280;44652;49.040;12.126;2024-02-28T18:57:37;97997.28;;;6.00;92.88
58875;BME280;44652;49.040;12.126;2024-02-28T19:00:04;98012.53;;;6.09;92.10
58875;BME280;44652;49.040;12.126;2024-02-28T19:02:32;98011.47;;;6.05;91.54
58875;BME280;44652;49.040;12.126;2024-02-28T19:04:59;98018.81;;;6.13;92.61
58875;BME280;44652;49.040;12.126;2024-02-28T19:07:26;98017.69;;;6.07;92.15
58875;BME280;44652;49.040;12.126;2024-02-28T19:09:52;98011.41;;;6.04;92.84
58875;BME280;44652;49.040;12.126;2024-02-28T19:12:19;98002.50;;;6.00;93.14
58875;BME280;44652;49.040;12.126;2024-02-28T19:14:46;98007.22;;;6.07;93.78
58875;BME280;44652;49.040;12.126;2024-02-28T19:17:13;97978.91;;;5.82;93.29
58875;BME280;44652;49.040;12.126;2024-02-28T19:19:40;98002.59;;;5.85;92.72
58875;BME280;44652;49.040;12.126;2024-02-28T19:22:07;97984.88;;;5.80;92.27
58875;BME280;44652;49.040;12.126;2024-02-28T19:24:35;97989.97;;;5.77;91.97
58875;BME280;44652;49.040;12.126;2024-02-28T19:27:02;97984.19;;;5.66;91.41
58875;BME280;44652;49.040;12.126;2024-02-28T19:29:28;97991.53;;;5.73;92.06
58875;BME280;44652;49.040;12.126;2024-02-28T19:31:55;97990.03;;;5.78;92.55
58875;BME280;44652;49.040;12.126;2024-02-28T19:34:22;98002.91;;;5.92;92.88
58875;BME280;44652;49.040;12.126;2024-02-28T19:36:49;98007.81;;;6.02;92.35
58875;BME280;44652;49.040;12.126;2024-02-28T19:39:16;97969.09;;;5.78;93.40
58875;BME280;44652;49.040;12.126;2024-02-28T19:41:42;97996.88;;;5.93;91.75
58875;BME280;44652;49.040;12.126;2024-02-28T19:44:09;97995.06;;;5.92;91.41
58875;BME280;44652;49.040;12.126;2024-02-28T19:46:45;97999.94;;;6.02;91.09
58875;BME280;44652;49.040;12.126;2024-02-28T19:49:12;97996.28;;;5.98;91.50
58875;BME280;44652;49.040;12.126;2024-02-28T19:51:40;97985.41;;;5.91;90.94
58875;BME280;44652;49.040;12.126;2024-02-28T19:54:06;97984.34;;;5.87;91.28
58875;BME280;44652;49.040;12.126;2024-02-28T19:56:33;97995.81;;;5.89;91.57
58875;BME280;44652;49.040;12.126;2024-02-28T19:59:00;98006.72;;;5.80;93.12
58875;BME280;44652;49.040;12.126;2024-02-28T20:01:27;97989.19;;;5.61;93.79
58875;BME280;44652;49.040;12.126;2024-02-28T20:03:55;98001.16;;;5.74;93.71
58875;BME280;44652;49.040;12.126;2024-02-28T20:06:22;97999.03;;;5.83;93.97
58875;BME280;44652;49.040;12.126;2024-02-28T20:08:49;98018.88;;;5.80;93.37
58875;BME280;44652;49.040;12.126;2024-02-28T20:11:17;98001.09;;;5.73;94.00
58875;BME280;44652;49.040;12.126;2024-02-28T20:13:44;97996.97;;;5.78;93.57
58875;BME280;44652;49.040;12.126;2024-02-28T20:16:17;98007.81;;;5.85;93.92
58875;BME280;44652;49.040;12.126;2024-02-28T20:18:44;98011.75;;;5.94;93.48
58875;BME280;44652;49.040;12.126;2024-02-28T20:21:11;98013.88;;;5.84;93.89
58875;BME280;44652;49.040;12.126;2024-02-28T20:23:48;98011.56;;;5.91;94.11
58875;BME280;44652;49.040;12.126;2024-02-28T20:26:14;98003.19;;;5.80;93.86
58875;BME280;44652;49.040;12.126;2024-02-28T20:28:43;98017.41;;;5.85;94.09
58875;BME280;44652;49.040;12.126;2024-02-28T20:31:10;98019.41;;;5.91;94.32
58875;BME280;44652;49.040;12.126;2024-02-28T20:33:37;98011.28;;;5.84;94.56
58875;BME280;44652;49.040;12.126;2024-02-28T20:36:04;97992.19;;;5.69;94.82
58875;BME280;44652;49.040;12.126;2024-02-28T20:38:31;98009.88;;;5.75;95.01
58875;BME280;44652;49.040;12.126;2024-02-28T20:40:58;97992.84;;;5.65;95.00
58875;BME280;44652;49.040;12.126;2024-02-28T20:43:24;97992.91;;;5.67;94.63
58875;BME280;44652;49.040;12.126;2024-02-28T20:45:51;97991.28;;;5.69;94.50
58875;BME280;44652;49.040;12.126;2024-02-28T20:48:18;97988.19;;;5.76;94.54
58875;BME280;44652;49.040;12.126;2024-02-28T20:50:45;98000.19;;;5.90;94.78
58875;BME280;44652;49.040;12.126;2024-02-28T20:53:14;97989.47;;;5.84;95.07
58875;BME280;44652;49.040;12.126;2024-02-28T20:55:42;97992.75;;;5.80;94.70
58875;BME280;44652;49.040;12.126;2024-02-28T20:58:08;98004.50;;;5.72;95.05
58875;BME280;44652;49.040;12.126;2024-02-28T21:00:35;98006.72;;;5.80;93.27
58875;BME280;44652;49.040;12.126;2024-02-28T21:03:05;97996.25;;;5.64;91.43
58875;BME280;44652;49.040;12.126;2024-02-28T21:05:32;97992.19;;;5.53;92.05
58875;BME280;44652;49.040;12.126;2024-02-28T21:07:59;98001.03;;;5.55;93.09
58875;BME280;44652;49.040;12.126;2024-02-28T21:10:26;97971.53;;;5.57;93.56
58875;BME280;44652;49.040;12.126;2024-02-28T21:12:53;97985.75;;;5.63;92.94
58875;BME280;44652;49.040;12.126;2024-02-28T21:15:21;97996.03;;;5.76;92.61
58875;BME280;44652;49.040;12.126;2024-02-28T21:17:48;97978.63;;;5.60;91.28
58875;BME280;44652;49.040;12.126;2024-02-28T21:20:14;97983.84;;;5.76;91.90
58875;BME280;44652;49.040;12.126;2024-02-28T21:22:42;97989.97;;;5.77;90.56
58875;BME280;44652;49.040;12.126;2024-02-28T21:25:09;97972.72;;;5.80;92.26
58875;BME280;44652;49.040;12.126;2024-02-28T21:27:36;97989.84;;;5.92;92.28
58875;BME280;44652;49.040;12.126;2024-02-28T21:30:04;97982.97;;;5.94;91.88
58875;BME280;44652;49.040;12.126;2024-02-28T21:32:32;97976.78;;;5.75;92.39
58875;BME280;44652;49.040;12.126;2024-02-28T21:34:58;97971.28;;;5.69;93.27
58875;BME280;44652;49.040;12.126;2024-02-28T21:37:25;97996.81;;;5.75;92.54
58875;BME280;44652;49.040;12.126;2024-02-28T21:39:52;97970.38;;;5.52;92.74
58875;BME280;44652;49.040;12.126;2024-02-28T21:42:19;97945.41;;;5.57;92.70
58875;BME280;44652;49.040;12.126;2024-02-28T21:44:45;97962.44;;;5.67;92.42
58875;BME280;44652;49.040;12.126;2024-02-28T21:47:12;97952.75;;;5.65;92.06
58875;BME280;44652;49.040;12.126;2024-02-28T21:49:40;97964.31;;;5.70;92.79
58875;BME280;44652;49.040;12.126;2024-02-28T21:52:08;97966.41;;;5.77;91.78
58875;BME280;44652;49.040;12.126;2024-02-28T21:54:34;97981.66;;;5.85;92.08
58875;BME280;44652;49.040;12.126;2024-02-28T21:57:01;97966.84;;;5.68;91.92
58875;BME280;44652;49.040;12.126;2024-02-28T21:59:29;97969.94;;;5.77;91.88
58875;BME280;44652;49.040;12.126;2024-02-28T22:01:56;97977.16;;;5.83;92.87
58875;BME280;44652;49.040;12.126;2024-02-28T22:04:23;97986.06;;;5.86;92.85
58875;BME280;44652;49.040;12.126;2024-02-28T22:06:50;97973.75;;;5.84;92.80
58875;BME280;44652;49.040;12.126;2024-02-28T22:09:17;97975.13;;;5.94;92.99
58875;BME280;44652;49.040;12.126;2024-02-28T22:11:44;97959.78;;;5.83;92.83
58875;BME280;44652;49.040;12.126;2024-02-28T22:14:10;97956.25;;;5.83;93.04
58875;BME280;44652;49.040;12.126;2024-02-28T22:16:38;97960.44;;;5.79;93.42
58875;BME280;44652;49.040;12.126;2024-02-28T22:19:05;97975.22;;;5.79;93.38
